Terminal Aerodrome Forecast
Issued by NWS

Home | Current Version | Previous Version | Text Only | Print | Product List | Glossary On
Versions: 1 2 3 4 5 6 7 8 9 10 11 12 13 14
000
FTUS46 KSGX 192325
TAFONT
TAF
KONT 192325Z 2000/2106 26012KT P6SM SCT250
     FM200400 VRB05KT P6SM FEW008 FEW250
     FM201200 VRB03KT 4SM BR BKN007
     FM201500 VRB03KT 6SM HZ SCT010
     FM201900 25007KT P6SM FEW250
     FM202200 26011G18KT P6SM FEW250
     FM210500 VRB05KT P6SM FEW010=

USA.gov is the U.S. government's official web portal to all federal, state and local government web resources and services.